createdAt,value
2022-08-27T00:04:21.133Z,19.96102
2022-08-27T00:14:22.645Z,20.03016
2022-08-27T00:19:23.604Z,19.8599
2022-08-27T00:24:24.530Z,19.77364
2022-08-27T00:29:25.445Z,19.70644
2022-08-27T00:34:26.423Z,19.66412
2022-08-27T00:39:27.338Z,19.65378
2022-08-27T00:44:28.281Z,19.86442
2022-08-27T00:49:29.612Z,19.76362
2022-08-27T00:54:30.637Z,19.72356
2022-08-27T00:59:31.590Z,19.70256
2022-08-27T01:04:32.849Z,19.68253
2022-08-27T01:09:47.221Z,19.69319
2022-08-27T01:14:53.157Z,19.90545
2022-08-27T01:19:56.686Z,19.89996
2022-08-27T01:24:58.255Z,20.2282
2022-08-27T01:29:59.226Z,20.15164
2022-08-27T01:35:00.192Z,20.04244
2022-08-27T01:40:01.211Z,20.11157
2022-08-27T01:45:05.042Z,20.18814
2022-08-27T01:50:06.887Z,20.47116
2022-08-27T01:55:07.829Z,20.43142
2022-08-27T02:00:08.758Z,20.36002
2022-08-27T02:05:09.674Z,20.11448
2022-08-27T02:10:11.659Z,20.09897
2022-08-27T02:15:12.633Z,20.17974
2022-08-27T02:20:13.583Z,20.15745
2022-08-27T02:25:14.488Z,20.10059
2022-08-27T02:30:15.498Z,20.01465
2022-08-27T02:35:16.436Z,19.9859
2022-08-27T02:40:17.581Z,19.90771
2022-08-27T02:45:18.605Z,19.9187
2022-08-27T02:50:19.524Z,19.92258
2022-08-27T02:55:20.495Z,20.02628
2022-08-27T03:00:21.863Z,20.18459
2022-08-27T03:05:23.192Z,20.03113
2022-08-27T03:10:24.150Z,20.11642
2022-08-27T03:15:26.422Z,20.24048
2022-08-27T03:20:28.234Z,20.28119
2022-08-27T03:25:29.159Z,20.16004
2022-08-27T03:30:30.508Z,20.44176
2022-08-27T03:35:31.464Z,20.41462
2022-08-27T03:45:48.496Z,20.4941
2022-08-27T03:51:02.057Z,20.6776
2022-08-27T03:56:03.016Z,20.79068
2022-08-27T04:01:03.976Z,20.65111
2022-08-27T04:06:04.949Z,20.40202
2022-08-27T04:11:23.675Z,20.16617
2022-08-27T04:16:25.244Z,20.56259
2022-08-27T04:21:26.246Z,20.55903
2022-08-27T04:26:27.165Z,20.39136
2022-08-27T04:31:28.222Z,20.41074
2022-08-27T04:36:29.235Z,20.36228
2022-08-27T04:41:30.181Z,20.1875
2022-08-27T04:46:31.269Z,20.16876
2022-08-27T04:51:33.699Z,20.20494
2022-08-27T05:01:35.500Z,20.46793
2022-08-27T05:06:36.550Z,20.3542
2022-08-27T05:11:37.481Z,20.15584
2022-08-27T05:16:38.562Z,20.08734
2022-08-27T05:21:39.582Z,20.04954
2022-08-27T05:26:40.554Z,20.04147
2022-08-27T05:31:42.004Z,20.04437
2022-08-27T05:36:48.022Z,20.17942
2022-08-27T05:41:50.266Z,20.3374
2022-08-27T05:46:51.236Z,20.27893
2022-08-27T05:51:52.172Z,20.23822
2022-08-27T05:56:53.136Z,20.22982
2022-08-27T06:01:54.094Z,20.39039
2022-08-27T06:06:56.580Z,20.65854
2022-08-27T06:11:58.213Z,20.81523
2022-08-27T06:16:59.286Z,20.87888
2022-08-27T06:22:10.049Z,20.75062
2022-08-27T06:27:12.798Z,20.95254
2022-08-27T06:32:13.762Z,20.99939
2022-08-27T06:37:14.686Z,20.75353
2022-08-27T06:42:15.793Z,20.72057
2022-08-27T06:47:18.866Z,20.89148
2022-08-27T06:52:23.061Z,20.7952
2022-08-27T06:57:24.397Z,20.67599
2022-08-27T07:07:31.860Z,20.96643
2022-08-27T07:12:37.521Z,21.18645
2022-08-27T07:17:38.508Z,21.00585
2022-08-27T07:22:39.560Z,20.95933
2022-08-27T07:27:40.556Z,21.08274
2022-08-27T07:32:41.602Z,21.19485
2022-08-27T07:37:42.645Z,21.16287
2022-08-27T07:42:43.645Z,21.25204
2022-08-27T07:47:44.594Z,21.27497
2022-08-27T07:57:46.448Z,21.52439
2022-08-27T08:02:47.670Z,21.4811
2022-08-27T08:12:56.570Z,21.25656
2022-08-27T08:17:57.813Z,21.25979
2022-08-27T08:22:58.867Z,21.34928
2022-08-27T08:28:00.247Z,21.42908
2022-08-27T08:33:01.605Z,21.30567
2022-08-27T08:38:02.572Z,21.34993
2022-08-27T08:43:03.580Z,21.52568
2022-08-27T08:48:04.681Z,21.86621
2022-08-27T08:53:05.662Z,21.78156
2022-08-27T08:58:06.709Z,21.61227
2022-08-27T09:03:07.702Z,21.59708
2022-08-27T09:08:31.967Z,21.74505
2022-08-27T09:13:34.680Z,22.05941
2022-08-27T09:18:35.801Z,22.14309
2022-08-27T09:23:44.700Z,22.08687
2022-08-27T09:28:46.276Z,22.12758
2022-08-27T09:33:56.034Z,22.05586
2022-08-27T09:43:58.567Z,22.49557
2022-08-27T09:48:59.592Z,22.60995
2022-08-27T09:54:02.343Z,22.53887
2022-08-27T09:59:03.429Z,22.43774
2022-08-27T10:04:04.465Z,22.30689
2022-08-27T10:09:14.516Z,22.52174
2022-08-27T10:14:15.495Z,22.44388
2022-08-27T10:19:16.526Z,22.2888
2022-08-27T10:24:17.750Z,22.50753
2022-08-27T10:29:18.713Z,22.60639
2022-08-27T10:34:19.792Z,22.71269
2022-08-27T10:39:20.959Z,22.55664
2022-08-27T10:49:24.347Z,22.8613
2022-08-27T10:54:32.504Z,22.54824
2022-08-27T10:59:33.932Z,22.51625
2022-08-27T11:04:34.881Z,22.53144
2022-08-27T11:09:36.227Z,22.63095
2022-08-27T11:14:37.152Z,22.65905
2022-08-27T11:19:44.858Z,22.60219
2022-08-27T11:29:46.512Z,23.14433
2022-08-27T11:34:47.523Z,23.53623
2022-08-27T11:39:52.311Z,23.68227
2022-08-27T11:49:53.866Z,23.3776
2022-08-27T11:54:54.808Z,23.40506
2022-08-27T11:59:55.750Z,23.6645
2022-08-27T12:04:56.737Z,23.86352
2022-08-27T12:09:57.670Z,23.50748
2022-08-27T12:14:58.593Z,23.31169
2022-08-27T12:20:00.039Z,23.46451
2022-08-27T12:25:01.064Z,23.52105
2022-08-27T12:35:04.523Z,23.98338
2022-08-27T12:45:06.338Z,23.95204
2022-08-27T12:50:07.398Z,24.28192
2022-08-27T12:55:08.390Z,24.24089
2022-08-27T13:00:09.387Z,24.41374
2022-08-27T13:05:10.701Z,24.96655
2022-08-27T13:10:11.845Z,25.34198
2022-08-27T13:15:14.489Z,25.39174
2022-08-27T13:20:17.448Z,25.17074
2022-08-27T13:25:18.367Z,24.93456
2022-08-27T13:30:35.562Z,25.11226
2022-08-27T13:40:38.031Z,25.64181
2022-08-27T13:45:38.996Z,25.6948
2022-08-27T13:50:40.032Z,25.49384
2022-08-27T13:55:41.171Z,25.44343
2022-08-27T14:00:42.085Z,25.12519
2022-08-27T14:05:43.012Z,24.99078
2022-08-27T14:10:43.979Z,25.08415
2022-08-27T14:16:28.944Z,24.76106
2022-08-27T14:21:40.041Z,24.868
2022-08-27T14:26:41.017Z,24.93036
2022-08-27T14:31:42.180Z,25.01953
2022-08-27T14:36:54.647Z,25.30967
2022-08-27T14:41:58.179Z,25.10225
2022-08-27T14:51:59.604Z,24.66381
2022-08-27T14:57:00.567Z,24.79111
2022-08-27T15:02:01.796Z,25.00209
2022-08-27T15:07:02.796Z,24.86671
2022-08-27T15:12:04.008Z,24.77205
2022-08-27T15:17:10.969Z,24.6021
2022-08-27T15:22:32.758Z,24.36786
2022-08-27T15:27:38.590Z,24.40534
2022-08-27T15:37:40.271Z,24.48094
2022-08-27T15:42:41.304Z,24.42666
2022-08-27T15:47:42.259Z,24.01182
2022-08-27T15:52:44.665Z,23.84672
2022-08-27T15:57:51.554Z,23.87935
2022-08-27T16:02:52.565Z,24.01795
2022-08-27T16:12:54.033Z,23.79696
2022-08-27T16:17:54.958Z,23.92167
2022-08-27T16:22:55.896Z,23.86158
2022-08-27T16:27:56.808Z,23.73687
2022-08-27T16:32:57.748Z,23.69422
2022-08-27T16:37:58.638Z,23.85092
2022-08-27T16:42:59.826Z,23.49294
2022-08-27T16:48:00.812Z,23.54495
2022-08-27T16:53:01.900Z,23.49455
2022-08-27T16:58:02.813Z,23.4742
2022-08-27T17:03:03.723Z,23.36435
2022-08-27T17:08:04.761Z,23.33139
2022-08-27T17:13:06.890Z,23.22898
2022-08-27T17:18:07.787Z,22.87326
2022-08-27T17:23:10.143Z,22.76535
2022-08-27T17:28:11.347Z,23.06743
2022-08-27T17:33:12.550Z,23.20765
2022-08-27T17:43:21.199Z,22.89975
2022-08-27T17:48:26.462Z,22.7983
2022-08-27T17:53:27.691Z,22.61835
2022-08-27T17:58:28.734Z,22.76761
2022-08-27T18:03:29.637Z,22.37119
2022-08-27T18:08:45.508Z,22.07427
2022-08-27T18:13:49.133Z,21.81161
2022-08-27T18:18:50.271Z,21.78609
2022-08-27T18:23:51.228Z,21.62002
2022-08-27T18:28:52.189Z,21.47561
2022-08-27T18:33:53.333Z,21.30147
2022-08-27T18:38:54.288Z,21.30599
2022-08-27T18:43:55.210Z,21.14154
2022-08-27T18:53:57.225Z,21.23588
2022-08-27T18:58:58.133Z,21.44911
2022-08-27T19:08:59.517Z,21.31116
2022-08-27T19:14:01.701Z,21.1745
2022-08-27T19:19:02.606Z,21.06756
2022-08-27T19:24:04.139Z,21.15253
2022-08-27T19:29:05.112Z,21.2837
2022-08-27T19:34:06.020Z,21.09566
2022-08-27T19:39:07.590Z,21.21617
2022-08-27T19:44:08.690Z,21.11214
2022-08-27T19:49:09.640Z,20.90763
2022-08-27T19:54:10.593Z,20.64206
2022-08-27T19:59:20.514Z,20.42011
2022-08-27T20:04:23.582Z,20.72897
2022-08-27T20:09:24.526Z,20.74222
2022-08-27T20:14:25.567Z,20.4857
2022-08-27T20:24:26.937Z,20.46405
2022-08-27T20:29:32.375Z,20.22239
2022-08-27T20:34:34.001Z,20.33353
2022-08-27T20:39:34.952Z,20.4563
2022-08-27T20:44:35.827Z,20.26019
2022-08-27T20:49:36.716Z,20.16456
2022-08-27T20:54:37.680Z,20.15971
2022-08-27T20:59:38.634Z,20.1077
2022-08-27T21:04:39.558Z,20.06053
2022-08-27T21:09:55.527Z,20.03791
2022-08-27T21:14:58.305Z,20.161
2022-08-27T21:19:59.188Z,20.10414
2022-08-27T21:25:00.107Z,20.04534
2022-08-27T21:30:01.030Z,20.06796
2022-08-27T21:35:02.081Z,20.15002
2022-08-27T21:40:03.336Z,20.2408
2022-08-27T21:45:04.367Z,20.24856
2022-08-27T21:50:05.283Z,20.24597
2022-08-27T22:00:06.667Z,20.5012
2022-08-27T22:05:07.622Z,20.21819
2022-08-27T22:10:08.580Z,20.08444
2022-08-27T22:15:09.533Z,19.97071
2022-08-27T22:20:10.456Z,19.96264
2022-08-27T22:25:11.456Z,19.96393
2022-08-27T22:30:12.540Z,19.8431
2022-08-27T22:35:13.495Z,19.92742
2022-08-27T22:40:19.497Z,19.8263
2022-08-27T22:45:21.215Z,19.88736
2022-08-27T22:50:22.331Z,19.81628
2022-08-27T22:55:23.262Z,19.65895
2022-08-27T23:00:24.181Z,19.61372
2022-08-27T23:05:25.329Z,19.4916
2022-08-27T23:10:27.169Z,19.41697
2022-08-27T23:15:28.223Z,19.47124
2022-08-27T23:20:29.221Z,19.4315
2022-08-27T23:25:30.158Z,19.41923
2022-08-27T23:30:31.086Z,19.4231
2022-08-27T23:40:32.553Z,19.6877
2022-08-27T23:45:35.976Z,19.47609
2022-08-27T23:50:40.740Z,19.42504
